KOPF/OPF METAR and TAF weather

Enter ICAO airport designator
Station Type Date Time Source
KOPF METAR 2024/06/15 22:53 UTC NOAA

KOPF 152253Z 12004KT 10SM BKN120 28/23 A2998 RMK AO2 SLP154 T02830228


Station Type Date Time Source
KOPF Decoded METAR 2024/06/15 22:53 UTC NOAA

MIAMI OPA LOCKA AIRPORT, FL, United States (KOPF) 25-54N 80-17W 16M
Jun 15, 2024 - 06:53 PM EDT / 2024.06.15 2253 UTC
Wind: from the ESE (120 degrees) at 5 MPH (4 KT):0
Visibility: 10 mile(s):0
Sky conditions: mostly cloudy
Temperature: 82.9 F (28.3 C)
Dew Point: 73.0 F (22.8 C)
Relative Humidity: 72%
Pressure (altimeter): 29.98 in. Hg (1015 hPa)
ob: KOPF 152253Z 12004KT 10SM BKN120 28/23 A2998 RMK AO2 SLP154 T02830228
cycle: 23

Station Type Date Time Source
KOPF TAF 2024/06/15 21:54 UTC NOAA